sensor_id;sensor_type;location;lat;lon;timestamp;P1;durP1;ratioP1;P2;durP2;ratioP2
20020;SDS011;10171;42.694;23.318;2023-09-07T00:01:53;14.15;;;10.25;;
20020;SDS011;10171;42.694;23.318;2023-09-07T00:04:20;13.07;;;9.35;;
20020;SDS011;10171;42.694;23.318;2023-09-07T00:06:47;12.45;;;9.88;;
20020;SDS011;10171;42.694;23.318;2023-09-07T00:09:14;11.23;;;9.95;;
20020;SDS011;10171;42.694;23.318;2023-09-07T00:11:41;13.27;;;9.73;;
20020;SDS011;10171;42.694;23.318;2023-09-07T00:14:06;12.57;;;9.55;;
20020;SDS011;10171;42.694;23.318;2023-09-07T00:16:32;12.18;;;9.35;;
20020;SDS011;10171;42.694;23.318;2023-09-07T00:19:03;14.90;;;10.00;;
20020;SDS011;10171;42.694;23.318;2023-09-07T00:21:29;11.55;;;8.98;;
20020;SDS011;10171;42.694;23.318;2023-09-07T00:23:55;13.00;;;10.15;;
20020;SDS011;10171;42.694;23.318;2023-09-07T00:26:21;15.27;;;9.57;;
20020;SDS011;10171;42.694;23.318;2023-09-07T00:28:46;13.85;;;10.65;;
20020;SDS011;10171;42.694;23.318;2023-09-07T00:31:12;15.90;;;10.90;;
20020;SDS011;10171;42.694;23.318;2023-09-07T00:33:37;12.93;;;10.00;;
20020;SDS011;10171;42.694;23.318;2023-09-07T00:36:03;12.75;;;10.18;;
20020;SDS011;10171;42.694;23.318;2023-09-07T00:38:29;13.93;;;10.25;;
20020;SDS011;10171;42.694;23.318;2023-09-07T00:40:54;13.82;;;9.73;;
20020;SDS011;10171;42.694;23.318;2023-09-07T00:43:20;13.13;;;10.68;;
20020;SDS011;10171;42.694;23.318;2023-09-07T00:45:45;13.60;;;10.43;;
20020;SDS011;10171;42.694;23.318;2023-09-07T00:48:11;13.48;;;10.50;;
20020;SDS011;10171;42.694;23.318;2023-09-07T00:50:38;14.02;;;10.10;;
20020;SDS011;10171;42.694;23.318;2023-09-07T00:53:04;13.48;;;10.48;;
20020;SDS011;10171;42.694;23.318;2023-09-07T00:55:32;12.40;;;10.05;;
20020;SDS011;10171;42.694;23.318;2023-09-07T00:58:00;13.90;;;10.48;;
20020;SDS011;10171;42.694;23.318;2023-09-07T01:00:26;13.93;;;10.27;;
20020;SDS011;10171;42.694;23.318;2023-09-07T01:02:52;15.02;;;10.40;;
20020;SDS011;10171;42.694;23.318;2023-09-07T01:05:18;15.00;;;10.70;;
20020;SDS011;10171;42.694;23.318;2023-09-07T01:07:47;12.30;;;10.73;;
20020;SDS011;10171;42.694;23.318;2023-09-07T01:10:19;16.05;;;10.50;;
20020;SDS011;10171;42.694;23.318;2023-09-07T01:12:46;13.68;;;10.85;;
20020;SDS011;10171;42.694;23.318;2023-09-07T01:15:12;13.48;;;11.15;;
20020;SDS011;10171;42.694;23.318;2023-09-07T01:17:37;15.25;;;10.65;;
20020;SDS011;10171;42.694;23.318;2023-09-07T01:20:04;15.15;;;11.52;;
20020;SDS011;10171;42.694;23.318;2023-09-07T01:22:36;13.50;;;11.18;;
20020;SDS011;10171;42.694;23.318;2023-09-07T01:25:03;14.27;;;10.85;;
20020;SDS011;10171;42.694;23.318;2023-09-07T01:27:31;15.88;;;12.40;;
20020;SDS011;10171;42.694;23.318;2023-09-07T01:30:01;14.00;;;11.70;;
20020;SDS011;10171;42.694;23.318;2023-09-07T01:32:28;17.10;;;12.48;;
20020;SDS011;10171;42.694;23.318;2023-09-07T01:34:57;16.30;;;11.73;;
20020;SDS011;10171;42.694;23.318;2023-09-07T01:37:23;13.38;;;11.73;;
20020;SDS011;10171;42.694;23.318;2023-09-07T01:39:48;19.02;;;12.52;;
20020;SDS011;10171;42.694;23.318;2023-09-07T01:42:15;16.88;;;12.43;;
20020;SDS011;10171;42.694;23.318;2023-09-07T01:44:40;15.00;;;12.38;;
20020;SDS011;10171;42.694;23.318;2023-09-07T01:47:06;17.00;;;13.15;;
20020;SDS011;10171;42.694;23.318;2023-09-07T01:49:31;15.48;;;13.23;;
20020;SDS011;10171;42.694;23.318;2023-09-07T01:51:57;20.13;;;13.52;;
20020;SDS011;10171;42.694;23.318;2023-09-07T01:54:22;15.20;;;12.40;;
20020;SDS011;10171;42.694;23.318;2023-09-07T01:56:48;15.02;;;13.35;;
20020;SDS011;10171;42.694;23.318;2023-09-07T01:59:16;20.23;;;13.00;;
20020;SDS011;10171;42.694;23.318;2023-09-07T02:01:42;16.85;;;13.30;;
20020;SDS011;10171;42.694;23.318;2023-09-07T02:04:07;17.83;;;13.00;;
20020;SDS011;10171;42.694;23.318;2023-09-07T02:06:33;19.92;;;13.77;;
20020;SDS011;10171;42.694;23.318;2023-09-07T02:08:58;17.25;;;13.32;;
20020;SDS011;10171;42.694;23.318;2023-09-07T02:11:24;17.63;;;13.13;;
20020;SDS011;10171;42.694;23.318;2023-09-07T02:13:49;16.02;;;12.95;;
20020;SDS011;10171;42.694;23.318;2023-09-07T02:16:15;17.85;;;13.40;;
20020;SDS011;10171;42.694;23.318;2023-09-07T02:18:41;19.67;;;13.65;;
20020;SDS011;10171;42.694;23.318;2023-09-07T02:21:10;21.38;;;14.18;;
20020;SDS011;10171;42.694;23.318;2023-09-07T02:23:36;18.77;;;14.55;;
20020;SDS011;10171;42.694;23.318;2023-09-07T02:26:02;18.50;;;14.18;;
20020;SDS011;10171;42.694;23.318;2023-09-07T02:28:28;18.58;;;14.20;;
20020;SDS011;10171;42.694;23.318;2023-09-07T02:30:53;20.67;;;14.32;;
20020;SDS011;10171;42.694;23.318;2023-09-07T02:33:19;16.10;;;13.55;;
20020;SDS011;10171;42.694;23.318;2023-09-07T02:35:47;17.73;;;13.88;;
20020;SDS011;10171;42.694;23.318;2023-09-07T02:38:13;17.70;;;13.98;;
20020;SDS011;10171;42.694;23.318;2023-09-07T02:40:44;17.30;;;13.32;;
20020;SDS011;10171;42.694;23.318;2023-09-07T02:43:10;18.83;;;13.60;;
20020;SDS011;10171;42.694;23.318;2023-09-07T02:45:36;19.20;;;14.23;;
20020;SDS011;10171;42.694;23.318;2023-09-07T02:48:02;19.60;;;14.00;;
20020;SDS011;10171;42.694;23.318;2023-09-07T02:50:32;20.13;;;14.82;;
20020;SDS011;10171;42.694;23.318;2023-09-07T02:52:58;17.80;;;14.50;;
20020;SDS011;10171;42.694;23.318;2023-09-07T02:55:25;20.27;;;14.68;;
20020;SDS011;10171;42.694;23.318;2023-09-07T02:57:51;19.88;;;14.77;;
20020;SDS011;10171;42.694;23.318;2023-09-07T03:00:17;20.02;;;14.70;;
20020;SDS011;10171;42.694;23.318;2023-09-07T03:02:43;21.05;;;14.73;;
20020;SDS011;10171;42.694;23.318;2023-09-07T03:05:09;17.48;;;14.18;;
20020;SDS011;10171;42.694;23.318;2023-09-07T03:07:34;20.38;;;14.95;;
20020;SDS011;10171;42.694;23.318;2023-09-07T03:10:00;20.63;;;15.48;;
20020;SDS011;10171;42.694;23.318;2023-09-07T03:12:26;18.80;;;14.80;;
20020;SDS011;10171;42.694;23.318;2023-09-07T03:14:52;19.38;;;14.88;;
20020;SDS011;10171;42.694;23.318;2023-09-07T03:17:18;19.80;;;16.25;;
20020;SDS011;10171;42.694;23.318;2023-09-07T03:19:45;19.65;;;15.60;;
20020;SDS011;10171;42.694;23.318;2023-09-07T03:22:11;18.98;;;15.02;;
20020;SDS011;10171;42.694;23.318;2023-09-07T03:24:37;24.60;;;16.08;;
20020;SDS011;10171;42.694;23.318;2023-09-07T03:27:03;21.77;;;15.80;;
20020;SDS011;10171;42.694;23.318;2023-09-07T03:29:30;20.10;;;15.52;;
20020;SDS011;10171;42.694;23.318;2023-09-07T03:31:58;19.77;;;15.88;;
20020;SDS011;10171;42.694;23.318;2023-09-07T03:34:23;24.45;;;16.48;;
20020;SDS011;10171;42.694;23.318;2023-09-07T03:36:49;21.33;;;15.55;;
20020;SDS011;10171;42.694;23.318;2023-09-07T03:39:15;22.65;;;16.95;;
20020;SDS011;10171;42.694;23.318;2023-09-07T03:41:40;21.52;;;16.90;;
20020;SDS011;10171;42.694;23.318;2023-09-07T03:44:06;20.83;;;17.05;;
20020;SDS011;10171;42.694;23.318;2023-09-07T03:46:31;21.08;;;16.98;;
20020;SDS011;10171;42.694;23.318;2023-09-07T03:48:57;24.52;;;17.27;;
20020;SDS011;10171;42.694;23.318;2023-09-07T03:51:22;21.73;;;16.45;;
20020;SDS011;10171;42.694;23.318;2023-09-07T03:53:47;24.23;;;17.58;;
20020;SDS011;10171;42.694;23.318;2023-09-07T03:56:13;21.67;;;15.65;;
20020;SDS011;10171;42.694;23.318;2023-09-07T03:58:38;20.75;;;16.20;;
20020;SDS011;10171;42.694;23.318;2023-09-07T04:01:04;21.30;;;16.83;;
20020;SDS011;10171;42.694;23.318;2023-09-07T04:03:29;21.42;;;17.35;;
20020;SDS011;10171;42.694;23.318;2023-09-07T04:05:55;23.52;;;17.60;;
20020;SDS011;10171;42.694;23.318;2023-09-07T04:08:20;22.83;;;17.77;;
20020;SDS011;10171;42.694;23.318;2023-09-07T04:10:46;24.58;;;17.83;;
20020;SDS011;10171;42.694;23.318;2023-09-07T04:13:11;27.08;;;17.67;;
20020;SDS011;10171;42.694;23.318;2023-09-07T04:15:43;22.05;;;18.00;;
20020;SDS011;10171;42.694;23.318;2023-09-07T04:18:11;25.33;;;17.48;;
20020;SDS011;10171;42.694;23.318;2023-09-07T04:20:38;22.02;;;18.20;;
20020;SDS011;10171;42.694;23.318;2023-09-07T04:23:04;28.17;;;19.38;;
20020;SDS011;10171;42.694;23.318;2023-09-07T04:25:29;25.95;;;19.00;;
20020;SDS011;10171;42.694;23.318;2023-09-07T04:27:55;26.27;;;19.13;;
20020;SDS011;10171;42.694;23.318;2023-09-07T04:30:21;25.27;;;18.55;;
20020;SDS011;10171;42.694;23.318;2023-09-07T04:32:47;24.77;;;18.73;;
20020;SDS011;10171;42.694;23.318;2023-09-07T04:35:13;25.80;;;19.13;;
20020;SDS011;10171;42.694;23.318;2023-09-07T04:37:38;29.02;;;19.08;;
20020;SDS011;10171;42.694;23.318;2023-09-07T04:40:07;25.63;;;19.08;;
20020;SDS011;10171;42.694;23.318;2023-09-07T04:42:33;23.23;;;18.10;;
20020;SDS011;10171;42.694;23.318;2023-09-07T04:44:58;21.35;;;18.00;;
20020;SDS011;10171;42.694;23.318;2023-09-07T04:47:24;26.13;;;17.30;;
20020;SDS011;10171;42.694;23.318;2023-09-07T04:49:49;28.15;;;18.40;;
20020;SDS011;10171;42.694;23.318;2023-09-07T04:52:18;26.38;;;18.05;;
20020;SDS011;10171;42.694;23.318;2023-09-07T04:54:44;27.45;;;18.52;;
20020;SDS011;10171;42.694;23.318;2023-09-07T04:57:10;25.20;;;17.98;;
20020;SDS011;10171;42.694;23.318;2023-09-07T04:59:36;29.80;;;18.50;;
20020;SDS011;10171;42.694;23.318;2023-09-07T05:02:01;31.38;;;19.50;;
20020;SDS011;10171;42.694;23.318;2023-09-07T05:04:27;25.58;;;17.08;;
20020;SDS011;10171;42.694;23.318;2023-09-07T05:06:54;29.13;;;18.17;;
20020;SDS011;10171;42.694;23.318;2023-09-07T05:09:21;24.95;;;17.45;;
20020;SDS011;10171;42.694;23.318;2023-09-07T05:11:46;28.00;;;18.13;;
20020;SDS011;10171;42.694;23.318;2023-09-07T05:14:12;27.65;;;18.00;;
20020;SDS011;10171;42.694;23.318;2023-09-07T05:16:37;27.60;;;17.75;;
20020;SDS011;10171;42.694;23.318;2023-09-07T05:19:02;24.50;;;17.20;;
20020;SDS011;10171;42.694;23.318;2023-09-07T05:21:28;24.40;;;17.02;;
20020;SDS011;10171;42.694;23.318;2023-09-07T05:23:53;22.98;;;16.88;;
20020;SDS011;10171;42.694;23.318;2023-09-07T05:26:22;23.50;;;17.92;;
20020;SDS011;10171;42.694;23.318;2023-09-07T05:28:50;24.75;;;17.80;;
20020;SDS011;10171;42.694;23.318;2023-09-07T05:31:16;22.42;;;17.38;;
20020;SDS011;10171;42.694;23.318;2023-09-07T05:33:41;24.70;;;17.17;;
20020;SDS011;10171;42.694;23.318;2023-09-07T05:36:07;22.08;;;16.33;;
20020;SDS011;10171;42.694;23.318;2023-09-07T05:38:32;22.08;;;16.15;;
20020;SDS011;10171;42.694;23.318;2023-09-07T05:40:58;21.67;;;15.48;;
20020;SDS011;10171;42.694;23.318;2023-09-07T05:43:24;19.52;;;14.82;;
20020;SDS011;10171;42.694;23.318;2023-09-07T05:45:49;24.92;;;16.02;;
20020;SDS011;10171;42.694;23.318;2023-09-07T05:48:14;19.98;;;15.90;;
20020;SDS011;10171;42.694;23.318;2023-09-07T05:50:43;20.17;;;15.30;;
20020;SDS011;10171;42.694;23.318;2023-09-07T05:53:09;22.67;;;15.45;;
20020;SDS011;10171;42.694;23.318;2023-09-07T05:55:35;21.15;;;14.75;;
20020;SDS011;10171;42.694;23.318;2023-09-07T05:58:04;22.40;;;15.20;;
20020;SDS011;10171;42.694;23.318;2023-09-07T06:00:31;21.35;;;14.68;;
20020;SDS011;10171;42.694;23.318;2023-09-07T06:02:56;21.20;;;15.60;;
20020;SDS011;10171;42.694;23.318;2023-09-07T06:05:22;17.85;;;14.43;;
20020;SDS011;10171;42.694;23.318;2023-09-07T06:07:47;25.75;;;16.48;;
20020;SDS011;10171;42.694;23.318;2023-09-07T06:10:13;20.35;;;14.68;;
20020;SDS011;10171;42.694;23.318;2023-09-07T06:12:39;21.63;;;15.55;;
20020;SDS011;10171;42.694;23.318;2023-09-07T06:15:05;21.67;;;15.85;;
20020;SDS011;10171;42.694;23.318;2023-09-07T06:17:31;24.85;;;16.17;;
20020;SDS011;10171;42.694;23.318;2023-09-07T06:19:56;20.38;;;13.98;;
20020;SDS011;10171;42.694;23.318;2023-09-07T06:22:22;19.52;;;14.43;;
20020;SDS011;10171;42.694;23.318;2023-09-07T06:24:48;20.42;;;14.13;;
20020;SDS011;10171;42.694;23.318;2023-09-07T06:27:14;19.73;;;14.07;;
20020;SDS011;10171;42.694;23.318;2023-09-07T06:29:39;18.42;;;12.40;;
20020;SDS011;10171;42.694;23.318;2023-09-07T06:32:05;19.02;;;13.40;;
20020;SDS011;10171;42.694;23.318;2023-09-07T06:34:30;16.90;;;12.30;;
20020;SDS011;10171;42.694;23.318;2023-09-07T06:36:56;19.52;;;13.43;;
20020;SDS011;10171;42.694;23.318;2023-09-07T06:39:21;15.80;;;12.57;;
20020;SDS011;10171;42.694;23.318;2023-09-07T06:41:47;16.17;;;13.48;;
20020;SDS011;10171;42.694;23.318;2023-09-07T06:44:12;18.83;;;13.00;;
20020;SDS011;10171;42.694;23.318;2023-09-07T06:46:39;21.92;;;12.95;;
20020;SDS011;10171;42.694;23.318;2023-09-07T06:49:04;15.25;;;12.25;;
20020;SDS011;10171;42.694;23.318;2023-09-07T06:51:30;15.55;;;12.52;;
20020;SDS011;10171;42.694;23.318;2023-09-07T06:53:56;17.90;;;12.48;;
20020;SDS011;10171;42.694;23.318;2023-09-07T06:56:22;19.38;;;12.35;;
20020;SDS011;10171;42.694;23.318;2023-09-07T06:58:47;18.05;;;12.38;;
20020;SDS011;10171;42.694;23.318;2023-09-07T07:01:13;17.75;;;12.27;;
20020;SDS011;10171;42.694;23.318;2023-09-07T07:03:38;18.13;;;12.15;;
20020;SDS011;10171;42.694;23.318;2023-09-07T07:06:04;15.13;;;11.82;;
20020;SDS011;10171;42.694;23.318;2023-09-07T07:08:29;13.43;;;11.25;;
20020;SDS011;10171;42.694;23.318;2023-09-07T07:10:54;14.43;;;10.80;;
20020;SDS011;10171;42.694;23.318;2023-09-07T07:13:20;15.65;;;10.80;;
20020;SDS011;10171;42.694;23.318;2023-09-07T07:15:45;17.25;;;12.32;;
20020;SDS011;10171;42.694;23.318;2023-09-07T07:18:11;15.32;;;11.68;;
20020;SDS011;10171;42.694;23.318;2023-09-07T07:20:40;17.38;;;10.85;;
20020;SDS011;10171;42.694;23.318;2023-09-07T07:23:06;16.15;;;10.98;;
20020;SDS011;10171;42.694;23.318;2023-09-07T07:25:32;13.77;;;10.55;;
20020;SDS011;10171;42.694;23.318;2023-09-07T07:28:01;15.18;;;10.52;;
20020;SDS011;10171;42.694;23.318;2023-09-07T07:30:30;15.75;;;10.50;;
20020;SDS011;10171;42.694;23.318;2023-09-07T07:33:01;18.05;;;11.73;;
20020;SDS011;10171;42.694;23.318;2023-09-07T07:35:29;14.70;;;11.20;;
20020;SDS011;10171;42.694;23.318;2023-09-07T07:37:59;15.68;;;10.48;;
20020;SDS011;10171;42.694;23.318;2023-09-07T07:40:25;21.55;;;11.90;;
20020;SDS011;10171;42.694;23.318;2023-09-07T07:42:51;16.25;;;11.10;;
20020;SDS011;10171;42.694;23.318;2023-09-07T07:45:18;19.80;;;10.80;;
20020;SDS011;10171;42.694;23.318;2023-09-07T07:47:47;27.75;;;11.55;;
20020;SDS011;10171;42.694;23.318;2023-09-07T07:50:14;20.25;;;10.95;;
20020;SDS011;10171;42.694;23.318;2023-09-07T07:52:39;18.00;;;9.60;;
20020;SDS011;10171;42.694;23.318;2023-09-07T07:55:05;23.00;;;10.43;;
20020;SDS011;10171;42.694;23.318;2023-09-07T07:57:31;17.48;;;9.85;;
20020;SDS011;10171;42.694;23.318;2023-09-07T07:59:57;16.00;;;9.43;;
20020;SDS011;10171;42.694;23.318;2023-09-07T08:02:23;18.33;;;9.18;;
20020;SDS011;10171;42.694;23.318;2023-09-07T08:04:49;17.55;;;8.73;;
20020;SDS011;10171;42.694;23.318;2023-09-07T08:07:14;14.73;;;9.20;;
20020;SDS011;10171;42.694;23.318;2023-09-07T08:09:40;14.43;;;8.38;;
20020;SDS011;10171;42.694;23.318;2023-09-07T08:12:05;14.25;;;8.52;;
20020;SDS011;10171;42.694;23.318;2023-09-07T08:14:31;10.68;;;8.25;;
20020;SDS011;10171;42.694;23.318;2023-09-07T08:16:57;13.35;;;8.00;;
20020;SDS011;10171;42.694;23.318;2023-09-07T08:19:23;13.23;;;8.43;;
20020;SDS011;10171;42.694;23.318;2023-09-07T08:21:49;11.35;;;8.60;;
20020;SDS011;10171;42.694;23.318;2023-09-07T08:24:15;12.15;;;8.18;;
20020;SDS011;10171;42.694;23.318;2023-09-07T08:26:40;14.60;;;8.38;;
20020;SDS011;10171;42.694;23.318;2023-09-07T08:29:07;14.70;;;8.77;;
20020;SDS011;10171;42.694;23.318;2023-09-07T08:31:36;11.85;;;8.05;;
20020;SDS011;10171;42.694;23.318;2023-09-07T08:34:04;15.18;;;8.32;;
20020;SDS011;10171;42.694;23.318;2023-09-07T08:36:31;17.23;;;8.73;;
20020;SDS011;10171;42.694;23.318;2023-09-07T08:38:59;24.75;;;8.90;;
20020;SDS011;10171;42.694;23.318;2023-09-07T08:41:31;14.00;;;8.80;;
20020;SDS011;10171;42.694;23.318;2023-09-07T08:44:02;14.65;;;8.98;;
20020;SDS011;10171;42.694;23.318;2023-09-07T08:46:30;11.00;;;8.10;;
20020;SDS011;10171;42.694;23.318;2023-09-07T08:48:56;11.07;;;8.85;;
20020;SDS011;10171;42.694;23.318;2023-09-07T08:51:24;12.98;;;8.57;;
20020;SDS011;10171;42.694;23.318;2023-09-07T08:53:53;25.52;;;9.48;;
20020;SDS011;10171;42.694;23.318;2023-09-07T08:56:18;12.15;;;8.55;;
20020;SDS011;10171;42.694;23.318;2023-09-07T08:58:46;17.83;;;8.05;;
20020;SDS011;10171;42.694;23.318;2023-09-07T09:01:14;13.98;;;8.93;;
20020;SDS011;10171;42.694;23.318;2023-09-07T09:03:41;11.20;;;9.05;;
20020;SDS011;10171;42.694;23.318;2023-09-07T09:06:07;12.25;;;8.20;;
20020;SDS011;10171;42.694;23.318;2023-09-07T09:08:43;11.88;;;8.75;;
20020;SDS011;10171;42.694;23.318;2023-09-07T09:11:22;16.40;;;8.52;;
20020;SDS011;10171;42.694;23.318;2023-09-07T09:13:49;12.07;;;7.88;;
20020;SDS011;10171;42.694;23.318;2023-09-07T09:16:16;10.40;;;7.45;;
20020;SDS011;10171;42.694;23.318;2023-09-07T09:18:52;9.65;;;7.38;;
20020;SDS011;10171;42.694;23.318;2023-09-07T09:21:19;11.90;;;8.35;;
20020;SDS011;10171;42.694;23.318;2023-09-07T09:23:51;12.32;;;8.18;;
20020;SDS011;10171;42.694;23.318;2023-09-07T09:26:18;150.35;;;33.22;;
20020;SDS011;10171;42.694;23.318;2023-09-07T09:28:44;92.60;;;22.88;;
20020;SDS011;10171;42.694;23.318;2023-09-07T09:31:10;88.57;;;24.13;;
20020;SDS011;10171;42.694;23.318;2023-09-07T09:33:38;18.20;;;10.10;;
20020;SDS011;10171;42.694;23.318;2023-09-07T09:36:08;13.25;;;7.88;;
20020;SDS011;10171;42.694;23.318;2023-09-07T09:38:34;15.80;;;7.45;;
20020;SDS011;10171;42.694;23.318;2023-09-07T09:41:00;19.42;;;9.48;;
20020;SDS011;10171;42.694;23.318;2023-09-07T09:43:28;8.93;;;6.78;;
20020;SDS011;10171;42.694;23.318;2023-09-07T09:45:54;29.10;;;11.57;;
20020;SDS011;10171;42.694;23.318;2023-09-07T09:48:20;21.95;;;8.80;;
20020;SDS011;10171;42.694;23.318;2023-09-07T09:50:49;15.85;;;8.95;;
20020;SDS011;10171;42.694;23.318;2023-09-07T09:53:16;11.38;;;7.55;;
20020;SDS011;10171;42.694;23.318;2023-09-07T09:55:47;10.13;;;7.90;;
20020;SDS011;10171;42.694;23.318;2023-09-07T09:58:13;12.15;;;9.73;;
20020;SDS011;10171;42.694;23.318;2023-09-07T10:00:46;26.83;;;10.57;;
20020;SDS011;10171;42.694;23.318;2023-09-07T10:05:45;12.13;;;7.82;;
20020;SDS011;10171;42.694;23.318;2023-09-07T10:08:15;25.00;;;16.80;;
20020;SDS011;10171;42.694;23.318;2023-09-07T10:10:43;42.05;;;30.83;;
20020;SDS011;10171;42.694;23.318;2023-09-07T10:13:13;13.40;;;7.95;;
20020;SDS011;10171;42.694;23.318;2023-09-07T10:15:39;15.13;;;8.18;;
20020;SDS011;10171;42.694;23.318;2023-09-07T10:18:05;24.05;;;15.18;;
20020;SDS011;10171;42.694;23.318;2023-09-07T10:20:51;15.10;;;7.22;;
20020;SDS011;10171;42.694;23.318;2023-09-07T10:23:20;15.98;;;10.27;;
20020;SDS011;10171;42.694;23.318;2023-09-07T10:25:49;23.10;;;7.72;;
20020;SDS011;10171;42.694;23.318;2023-09-07T10:28:20;19.27;;;7.70;;
20020;SDS011;10171;42.694;23.318;2023-09-07T10:30:57;11.15;;;7.45;;
20020;SDS011;10171;42.694;23.318;2023-09-07T10:33:28;9.77;;;7.53;;
20020;SDS011;10171;42.694;23.318;2023-09-07T10:35:54;13.55;;;7.50;;
20020;SDS011;10171;42.694;23.318;2023-09-07T10:38:20;13.13;;;9.00;;
20020;SDS011;10171;42.694;23.318;2023-09-07T10:40:47;12.07;;;7.07;;
20020;SDS011;10171;42.694;23.318;2023-09-07T10:43:12;9.43;;;7.07;;
20020;SDS011;10171;42.694;23.318;2023-09-07T10:45:38;8.25;;;6.90;;
20020;SDS011;10171;42.694;23.318;2023-09-07T10:48:04;10.80;;;6.30;;
20020;SDS011;10171;42.694;23.318;2023-09-07T10:50:29;10.38;;;7.43;;
20020;SDS011;10171;42.694;23.318;2023-09-07T10:52:55;9.95;;;6.55;;
20020;SDS011;10171;42.694;23.318;2023-09-07T10:55:20;8.27;;;6.25;;
20020;SDS011;10171;42.694;23.318;2023-09-07T10:57:46;9.38;;;6.53;;
20020;SDS011;10171;42.694;23.318;2023-09-07T11:00:13;12.70;;;7.80;;
20020;SDS011;10171;42.694;23.318;2023-09-07T11:02:42;16.27;;;7.82;;
20020;SDS011;10171;42.694;23.318;2023-09-07T11:05:08;11.52;;;7.22;;
20020;SDS011;10171;42.694;23.318;2023-09-07T11:07:35;10.88;;;7.25;;
20020;SDS011;10171;42.694;23.318;2023-09-07T11:10:04;7.00;;;5.28;;
20020;SDS011;10171;42.694;23.318;2023-09-07T11:12:36;9.00;;;5.75;;
20020;SDS011;10171;42.694;23.318;2023-09-07T11:15:02;10.43;;;5.65;;
20020;SDS011;10171;42.694;23.318;2023-09-07T11:17:29;8.63;;;5.95;;
20020;SDS011;10171;42.694;23.318;2023-09-07T11:19:55;6.78;;;5.70;;
20020;SDS011;10171;42.694;23.318;2023-09-07T11:22:20;8.35;;;5.57;;
20020;SDS011;10171;42.694;23.318;2023-09-07T11:24:47;6.57;;;5.70;;
20020;SDS011;10171;42.694;23.318;2023-09-07T11:27:13;6.72;;;5.68;;
20020;SDS011;10171;42.694;23.318;2023-09-07T11:29:38;8.07;;;6.30;;
20020;SDS011;10171;42.694;23.318;2023-09-07T11:32:11;7.47;;;5.72;;
20020;SDS011;10171;42.694;23.318;2023-09-07T11:34:47;9.20;;;5.35;;
20020;SDS011;10171;42.694;23.318;2023-09-07T11:37:17;10.50;;;5.50;;
20020;SDS011;10171;42.694;23.318;2023-09-07T11:39:43;10.20;;;6.22;;
20020;SDS011;10171;42.694;23.318;2023-09-07T11:42:09;9.10;;;5.68;;
20020;SDS011;10171;42.694;23.318;2023-09-07T11:44:34;8.38;;;5.78;;
20020;SDS011;10171;42.694;23.318;2023-09-07T11:47:00;7.80;;;5.30;;
20020;SDS011;10171;42.694;23.318;2023-09-07T11:49:26;6.43;;;5.25;;
20020;SDS011;10171;42.694;23.318;2023-09-07T11:51:51;10.13;;;6.32;;
20020;SDS011;10171;42.694;23.318;2023-09-07T11:54:17;6.22;;;5.45;;
20020;SDS011;10171;42.694;23.318;2023-09-07T11:56:42;9.15;;;5.50;;
20020;SDS011;10171;42.694;23.318;2023-09-07T11:59:10;6.00;;;5.18;;
20020;SDS011;10171;42.694;23.318;2023-09-07T12:01:36;8.25;;;5.45;;
20020;SDS011;10171;42.694;23.318;2023-09-07T12:04:04;7.38;;;4.90;;
20020;SDS011;10171;42.694;23.318;2023-09-07T12:06:31;6.60;;;5.18;;
20020;SDS011;10171;42.694;23.318;2023-09-07T12:09:03;8.75;;;5.63;;
20020;SDS011;10171;42.694;23.318;2023-09-07T12:11:31;8.25;;;6.38;;
20020;SDS011;10171;42.694;23.318;2023-09-07T12:13:57;8.20;;;5.95;;
20020;SDS011;10171;42.694;23.318;2023-09-07T12:16:23;7.20;;;5.13;;
20020;SDS011;10171;42.694;23.318;2023-09-07T12:18:50;7.60;;;5.68;;
20020;SDS011;10171;42.694;23.318;2023-09-07T12:21:15;6.82;;;5.57;;
20020;SDS011;10171;42.694;23.318;2023-09-07T12:23:40;8.90;;;6.30;;
20020;SDS011;10171;42.694;23.318;2023-09-07T12:26:06;10.20;;;5.53;;
20020;SDS011;10171;42.694;23.318;2023-09-07T12:28:32;10.23;;;5.70;;
20020;SDS011;10171;42.694;23.318;2023-09-07T12:30:57;7.03;;;5.40;;
20020;SDS011;10171;42.694;23.318;2023-09-07T12:33:23;4.97;;;4.40;;
20020;SDS011;10171;42.694;23.318;2023-09-07T12:35:49;11.18;;;5.20;;
20020;SDS011;10171;42.694;23.318;2023-09-07T12:38:14;5.43;;;4.80;;
20020;SDS011;10171;42.694;23.318;2023-09-07T12:40:43;8.52;;;5.13;;
20020;SDS011;10171;42.694;23.318;2023-09-07T12:43:09;9.20;;;6.15;;
20020;SDS011;10171;42.694;23.318;2023-09-07T12:45:35;8.52;;;5.90;;
20020;SDS011;10171;42.694;23.318;2023-09-07T12:48:00;8.10;;;6.13;;
20020;SDS011;10171;42.694;23.318;2023-09-07T12:50:26;7.25;;;5.63;;
20020;SDS011;10171;42.694;23.318;2023-09-07T12:52:52;7.82;;;5.03;;
20020;SDS011;10171;42.694;23.318;2023-09-07T12:55:19;6.13;;;5.30;;
20020;SDS011;10171;42.694;23.318;2023-09-07T12:57:45;8.80;;;4.75;;
20020;SDS011;10171;42.694;23.318;2023-09-07T13:00:11;9.20;;;5.22;;
20020;SDS011;10171;42.694;23.318;2023-09-07T13:02:37;9.30;;;5.47;;
20020;SDS011;10171;42.694;23.318;2023-09-07T13:05:02;7.55;;;6.75;;
20020;SDS011;10171;42.694;23.318;2023-09-07T13:07:31;7.97;;;6.20;;
20020;SDS011;10171;42.694;23.318;2023-09-07T13:09:57;7.80;;;5.57;;
20020;SDS011;10171;42.694;23.318;2023-09-07T13:12:23;6.90;;;4.95;;
20020;SDS011;10171;42.694;23.318;2023-09-07T13:14:48;8.90;;;5.28;;
20020;SDS011;10171;42.694;23.318;2023-09-07T13:17:14;6.35;;;4.88;;
20020;SDS011;10171;42.694;23.318;2023-09-07T13:19:40;5.28;;;4.78;;
20020;SDS011;10171;42.694;23.318;2023-09-07T13:22:05;8.63;;;5.50;;
20020;SDS011;10171;42.694;23.318;2023-09-07T13:24:32;7.90;;;6.00;;
20020;SDS011;10171;42.694;23.318;2023-09-07T13:26:58;7.72;;;5.80;;
20020;SDS011;10171;42.694;23.318;2023-09-07T13:29:23;6.80;;;5.55;;
20020;SDS011;10171;42.694;23.318;2023-09-07T13:31:51;8.23;;;5.40;;
20020;SDS011;10171;42.694;23.318;2023-09-07T13:34:18;10.13;;;6.35;;
20020;SDS011;10171;42.694;23.318;2023-09-07T13:36:46;8.23;;;6.03;;
20020;SDS011;10171;42.694;23.318;2023-09-07T13:39:11;10.93;;;5.88;;
20020;SDS011;10171;42.694;23.318;2023-09-07T13:41:36;7.95;;;5.45;;
20020;SDS011;10171;42.694;23.318;2023-09-07T13:44:02;6.55;;;5.20;;
20020;SDS011;10171;42.694;23.318;2023-09-07T13:46:27;6.63;;;5.70;;
20020;SDS011;10171;42.694;23.318;2023-09-07T13:48:54;9.40;;;5.95;;
20020;SDS011;10171;42.694;23.318;2023-09-07T13:51:19;8.25;;;5.38;;
20020;SDS011;10171;42.694;23.318;2023-09-07T13:53:45;7.53;;;5.63;;
20020;SDS011;10171;42.694;23.318;2023-09-07T13:56:10;5.65;;;4.90;;
20020;SDS011;10171;42.694;23.318;2023-09-07T13:58:36;8.60;;;5.47;;
20020;SDS011;10171;42.694;23.318;2023-09-07T14:01:01;7.80;;;5.43;;
20020;SDS011;10171;42.694;23.318;2023-09-07T14:03:27;6.65;;;5.00;;
20020;SDS011;10171;42.694;23.318;2023-09-07T14:05:52;6.15;;;5.43;;
20020;SDS011;10171;42.694;23.318;2023-09-07T14:08:17;7.03;;;5.50;;
20020;SDS011;10171;42.694;23.318;2023-09-07T14:10:48;7.38;;;5.85;;
20020;SDS011;10171;42.694;23.318;2023-09-07T14:13:14;6.25;;;5.40;;
20020;SDS011;10171;42.694;23.318;2023-09-07T14:15:40;9.35;;;5.90;;